TimeCDT,TemperatureF,Dew PointF,Humidity,Sea Level PressureIn,VisibilityMPH,Wind Direction,Wind SpeedMPH,Gust SpeedMPH,PrecipitationIn,Events,Conditions,WindDirDegrees,DateUTC
12:52 AM,43.0,43.0,100,29.83,4.0,NW,10.4,-,0.01,Rain,Light Rain,320,2011-11-03 05:52:00
1:09 AM,42.8,42.8,100,29.86,9.0,WNW,9.2,-,0.00,,Overcast,290,2011-11-03 06:09:00
1:29 AM,41.0,39.2,93,29.88,8.0,West,18.4,26.5,0.00,,Overcast,280,2011-11-03 06:29:00
1:52 AM,39.9,39.0,97,29.88,5.0,West,23.0,29.9,0.01,Rain,Light Rain,280,2011-11-03 06:52:00
2:47 AM,37.4,37.4,100,29.91,7.0,WNW,16.1,34.5,0.01,Rain,Light Rain,290,2011-11-03 07:47:00
2:52 AM,37.9,36.0,93,29.91,9.0,WNW,16.1,27.6,0.01,Rain,Light Rain,300,2011-11-03 07:52:00
3:11 AM,37.4,35.6,93,29.92,10.0,WNW,17.3,26.5,0.01,Rain,Light Rain,300,2011-11-03 08:11:00
3:52 AM,37.0,36.0,96,29.92,7.0,WNW,17.3,24.2,0.02,Rain,Light Rain,300,2011-11-03 08:52:00
4:52 AM,36.0,35.1,97,29.94,4.0,WNW,13.8,23.0,0.00,Rain,Light Rain,300,2011-11-03 09:52:00
5:52 AM,34.0,33.1,96,29.98,6.0,WNW,12.7,20.7,0.02,Rain,Light Rain,290,2011-11-03 10:52:00
6:13 AM,33.8,33.8,100,29.98,4.0,WNW,11.5,20.7,0.00,Rain,Light Freezing Rain,300,2011-11-03 11:13:00
6:52 AM,34.0,33.1,96,30.00,4.0,WNW,13.8,-,0.01,Rain,Light Freezing Rain,290,2011-11-03 11:52:00
7:52 AM,36.0,36.0,100,30.01,3.0,WNW,17.3,21.9,0.02,Rain,Light Freezing Rain,300,2011-11-03 12:52:00
8:16 AM,37.4,35.6,93,30.01,4.0,NW,12.7,20.7,0.01,Rain,Light Rain,310,2011-11-03 13:16:00
8:52 AM,39.0,37.0,93,30.03,10.0,NW,21.9,32.2,0.01,,Overcast,310,2011-11-03 13:52:00
9:15 AM,39.2,35.6,87,30.03,10.0,NW,19.6,29.9,N/A,,Overcast,310,2011-11-03 14:15:00
9:52 AM,39.0,36.0,89,30.06,10.0,WNW,15.0,24.2,N/A,,Overcast,300,2011-11-03 14:52:00
10:52 AM,39.0,36.0,89,30.09,10.0,NW,17.3,24.2,N/A,,Overcast,310,2011-11-03 15:52:00
11:52 AM,39.9,36.0,86,30.10,10.0,NW,19.6,27.6,0.00,,Overcast,310,2011-11-03 16:52:00
12:52 PM,41.0,35.1,79,30.11,10.0,NW,17.3,32.2,N/A,,Overcast,320,2011-11-03 17:52:00
1:52 PM,42.8,35.6,76,30.09,10.0,NW,16.1,25.3,N/A,,Overcast,320,2011-11-03 18:52:00
2:52 PM,44.1,35.1,71,30.12,10.0,NW,18.4,25.3,N/A,,Overcast,320,2011-11-03 19:52:00
3:24 PM,44.6,35.6,71,30.11,10.0,NW,17.3,21.9,N/A,,Overcast,320,2011-11-03 20:24:00
3:52 PM,45.0,35.1,68,30.13,10.0,NW,13.8,20.7,N/A,,Overcast,320,2011-11-03 20:52:00
4:52 PM,46.0,34.0,63,30.15,10.0,NNW,18.4,25.3,N/A,,Overcast,340,2011-11-03 21:52:00
5:52 PM,44.6,35.6,71,30.15,10.0,NNW,9.2,-,N/A,,Overcast,330,2011-11-03 22:52:00
6:52 PM,46.0,33.1,61,30.19,10.0,NNW,10.4,-,N/A,,Overcast,330,2011-11-03 23:52:00
7:52 PM,46.0,32.0,58,30.20,10.0,North,10.4,-,N/A,,Overcast,350,2011-11-04 00:52:00
8:52 PM,45.0,33.1,63,30.21,10.0,NNW,8.1,-,N/A,,Overcast,340,2011-11-04 01:52:00
9:52 PM,44.6,32.0,61,30.19,10.0,North,8.1,-,N/A,,Overcast,350,2011-11-04 02:52:00
10:52 PM,44.1,33.1,65,30.22,10.0,North,6.9,-,N/A,,Overcast,350,2011-11-04 03:52:00
11:52 PM,45.0,33.1,63,30.22,10.0,North,8.1,-,N/A,,Overcast,350,2011-11-04 04:52:00